createdAt,value
2023-01-19T00:01:00.320Z,88.65
2023-01-19T00:02:33.334Z,88.74
2023-01-19T00:04:06.885Z,89.07
2023-01-19T00:05:39.841Z,89.13
2023-01-19T00:07:12.932Z,89.36
2023-01-19T00:08:46.371Z,89.33
2023-01-19T00:10:19.324Z,89.45
2023-01-19T00:11:52.659Z,89.46
2023-01-19T00:13:25.944Z,89.30
2023-01-19T00:14:58.842Z,89.66
2023-01-19T00:16:31.840Z,89.25
2023-01-19T00:18:05.006Z,89.20
2023-01-19T00:19:37.939Z,89.25
2023-01-19T00:21:11.303Z,89.36
2023-01-19T00:22:44.221Z,88.90
2023-01-19T00:24:17.253Z,89.46
2023-01-19T00:25:51.542Z,89.67
2023-01-19T00:27:25.302Z,89.64
2023-01-19T00:28:58.474Z,90.02
2023-01-19T00:30:31.484Z,90.20
2023-01-19T00:32:05.656Z,90.16
2023-01-19T00:33:38.763Z,90.48
2023-01-19T00:35:12.233Z,90.92
2023-01-19T00:36:45.356Z,91.11
2023-01-19T00:38:18.553Z,91.44
2023-01-19T00:39:51.813Z,92.02
2023-01-19T00:41:43.949Z,93.09
2023-01-19T00:43:17.141Z,93.03
2023-01-19T00:44:50.343Z,93.21
2023-01-19T00:46:27.312Z,94.12
2023-01-19T00:48:00.250Z,94.13
2023-01-19T00:49:33.465Z,94.27
2023-01-19T00:51:06.574Z,94.10
2023-01-19T00:52:41.043Z,94.22
2023-01-19T00:54:13.827Z,94.41
2023-01-19T00:55:46.888Z,94.90
2023-01-19T00:57:20.179Z,95.24
2023-01-19T00:58:53.058Z,95.40
2023-01-19T01:00:26.886Z,95.12
2023-01-19T01:02:00.118Z,95.26
2023-01-19T01:03:33.461Z,95.56
2023-01-19T01:05:06.851Z,95.18
2023-01-19T01:06:40.326Z,95.67
2023-01-19T01:08:13.518Z,96.13
2023-01-19T01:09:46.430Z,96.11
2023-01-19T01:11:19.368Z,96.41
2023-01-19T01:12:53.620Z,96.49
2023-01-19T01:14:30.891Z,97.01
2023-01-19T01:16:04.158Z,97.14
2023-01-19T01:17:37.591Z,97.40
2023-01-19T01:19:10.747Z,97.89
2023-01-19T01:20:43.775Z,98.00
2023-01-19T01:22:16.694Z,98.61
2023-01-19T01:23:49.890Z,98.43
2023-01-19T01:25:25.483Z,98.67
2023-01-19T01:26:58.739Z,98.63
2023-01-19T01:28:32.438Z,99.30
2023-01-19T01:30:06.693Z,98.85
2023-01-19T01:31:39.905Z,99.05
2023-01-19T01:33:13.825Z,98.36
2023-01-19T01:34:46.983Z,97.77
2023-01-19T01:36:21.091Z,97.34
2023-01-19T01:37:57.991Z,97.26
2023-01-19T01:39:31.139Z,96.95
2023-01-19T01:41:04.367Z,96.97
2023-01-19T01:42:37.374Z,96.54
2023-01-19T01:44:50.263Z,95.81
2023-01-19T01:46:23.900Z,95.32
2023-01-19T01:48:16.543Z,95.37
2023-01-19T01:49:55.018Z,95.71
2023-01-19T01:51:37.166Z,95.40
2023-01-19T01:53:14.396Z,96.31
2023-01-19T01:54:47.510Z,97.14
2023-01-19T01:56:25.397Z,97.26
2023-01-19T01:58:02.862Z,97.82
2023-01-19T01:59:40.196Z,98.25
2023-01-19T02:01:31.618Z,98.39
2023-01-19T02:03:04.891Z,97.62
2023-01-19T02:04:40.776Z,97.71
2023-01-19T02:06:15.131Z,97.29
2023-01-19T02:08:35.735Z,97.84
2023-01-19T02:10:27.531Z,97.82
2023-01-19T02:12:18.806Z,98.58
2023-01-19T02:13:52.000Z,99.33
2023-01-19T02:15:24.924Z,99.99
2023-01-19T02:16:58.222Z,99.88
2023-01-19T02:18:32.672Z,100.00
2023-01-19T02:20:06.136Z,100.00
2023-01-19T02:22:16.356Z,100.00
2023-01-19T02:23:52.671Z,100.00
2023-01-19T02:25:25.915Z,100.00
2023-01-19T02:27:00.234Z,100.00
2023-01-19T02:28:33.785Z,100.00
2023-01-19T02:30:08.832Z,100.00
2023-01-19T02:31:42.432Z,100.00
2023-01-19T02:33:15.264Z,100.00
2023-01-19T02:34:48.244Z,100.00
2023-01-19T02:36:27.415Z,100.00
2023-01-19T02:38:02.112Z,100.00
2023-01-19T02:39:51.007Z,100.00
2023-01-19T02:41:28.956Z,100.00
2023-01-19T02:43:03.708Z,100.00
2023-01-19T02:44:38.672Z,100.00
2023-01-19T02:46:11.798Z,100.00
2023-01-19T02:47:49.456Z,100.00
2023-01-19T02:49:22.888Z,100.00
2023-01-19T02:51:04.647Z,100.00
2023-01-19T02:52:37.551Z,100.00
2023-01-19T02:54:36.430Z,100.00
2023-01-19T02:56:30.641Z,100.00
2023-01-19T02:58:21.447Z,100.00
2023-01-19T03:00:22.013Z,100.00
2023-01-19T03:02:16.829Z,100.00
2023-01-19T03:03:57.378Z,100.00
2023-01-19T03:05:34.539Z,100.00
2023-01-19T03:08:05.994Z,100.00
2023-01-19T03:09:54.160Z,100.00
2023-01-19T03:11:33.735Z,100.00
2023-01-19T03:13:23.288Z,100.00
2023-01-19T03:15:02.187Z,100.00
2023-01-19T03:16:44.488Z,100.00
2023-01-19T03:18:21.703Z,100.00
2023-01-19T03:19:54.693Z,100.00
2023-01-19T03:21:29.870Z,100.00
2023-01-19T03:23:08.084Z,100.00
2023-01-19T03:24:43.633Z,100.00
2023-01-19T03:26:25.440Z,100.00
2023-01-19T03:27:58.593Z,100.00
2023-01-19T03:29:37.842Z,100.00
2023-01-19T03:31:26.414Z,100.00
2023-01-19T03:33:08.670Z,100.00
2023-01-19T03:34:44.607Z,100.00
2023-01-19T03:36:24.690Z,100.00
2023-01-19T03:38:01.359Z,100.00
2023-01-19T03:39:34.833Z,100.00
2023-01-19T03:41:13.848Z,100.00
2023-01-19T03:42:47.815Z,100.00
2023-01-19T03:44:20.713Z,100.00
2023-01-19T03:45:55.574Z,100.00
2023-01-19T03:47:29.168Z,100.00
2023-01-19T03:49:02.527Z,100.00
2023-01-19T03:50:35.836Z,100.00
2023-01-19T03:52:08.941Z,100.00
2023-01-19T03:53:42.519Z,100.00
2023-01-19T03:55:15.478Z,100.00
2023-01-19T03:56:48.448Z,100.00
2023-01-19T03:58:22.423Z,100.00
2023-01-19T03:59:56.235Z,100.00
2023-01-19T04:01:29.285Z,100.00
2023-01-19T04:03:02.825Z,100.00
2023-01-19T04:04:36.318Z,100.00
2023-01-19T04:06:10.084Z,100.00
2023-01-19T04:07:42.915Z,100.00
2023-01-19T04:09:15.907Z,100.00
2023-01-19T04:10:49.337Z,100.00
2023-01-19T04:12:22.534Z,100.00
2023-01-19T04:13:55.394Z,100.00
2023-01-19T04:15:29.647Z,100.00
2023-01-19T04:17:02.600Z,100.00
2023-01-19T04:18:36.402Z,100.00
2023-01-19T04:20:09.916Z,100.00
2023-01-19T04:21:42.892Z,100.00
2023-01-19T04:23:15.702Z,100.00
2023-01-19T04:24:48.715Z,100.00
2023-01-19T04:26:21.684Z,100.00
2023-01-19T04:27:55.528Z,100.00
2023-01-19T04:29:28.499Z,100.00
2023-01-19T04:31:02.047Z,100.00
2023-01-19T04:32:35.082Z,100.00
2023-01-19T04:34:07.900Z,100.00
2023-01-19T04:35:40.970Z,100.00
2023-01-19T04:37:14.555Z,100.00
2023-01-19T04:38:48.849Z,100.00
2023-01-19T04:40:21.829Z,100.00
2023-01-19T04:41:54.783Z,99.87
2023-01-19T04:43:27.857Z,100.00
2023-01-19T04:45:01.098Z,100.00
2023-01-19T04:46:35.413Z,100.00
2023-01-19T04:48:08.447Z,99.99
2023-01-19T04:49:41.560Z,99.69
2023-01-19T04:51:14.451Z,100.00
2023-01-19T04:52:48.167Z,99.44
2023-01-19T04:54:21.622Z,99.09
2023-01-19T04:55:55.851Z,98.93
2023-01-19T04:57:30.377Z,98.55
2023-01-19T04:59:03.701Z,98.41
2023-01-19T05:00:37.229Z,97.89
2023-01-19T05:02:10.522Z,94.33
2023-01-19T05:03:43.551Z,90.26
2023-01-19T05:05:17.806Z,82.55
2023-01-19T05:06:51.981Z,76.69
2023-01-19T05:08:25.183Z,70.95
2023-01-19T05:09:58.063Z,67.46
2023-01-19T05:11:31.140Z,62.28
2023-01-19T05:13:05.788Z,57.51
2023-01-19T05:14:39.142Z,54.38
2023-01-19T05:16:14.199Z,53.45
2023-01-19T05:17:47.223Z,52.79
2023-01-19T05:19:20.261Z,51.58
2023-01-19T05:20:53.346Z,49.26
2023-01-19T05:22:26.659Z,47.45
2023-01-19T05:23:59.697Z,46.79
2023-01-19T05:25:32.747Z,46.12
2023-01-19T05:27:06.185Z,45.70
2023-01-19T05:28:39.292Z,45.33
2023-01-19T05:30:13.685Z,44.58
2023-01-19T05:31:46.543Z,44.36
2023-01-19T05:33:19.642Z,43.52
2023-01-19T05:34:52.607Z,43.24
2023-01-19T05:36:25.497Z,42.41
2023-01-19T05:37:58.395Z,41.97
2023-01-19T05:39:31.642Z,41.91
2023-01-19T05:41:04.805Z,41.79
2023-01-19T05:42:38.001Z,42.15
2023-01-19T05:44:10.907Z,41.43
2023-01-19T05:45:44.085Z,41.31
2023-01-19T05:47:17.051Z,41.32
2023-01-19T05:48:49.939Z,40.72
2023-01-19T05:50:23.192Z,40.84
2023-01-19T05:51:56.570Z,40.54
2023-01-19T05:53:29.660Z,41.35
2023-01-19T05:55:02.570Z,41.38
2023-01-19T05:56:36.197Z,41.00
2023-01-19T05:58:09.315Z,40.62
2023-01-19T05:59:42.365Z,40.47
2023-01-19T06:01:15.420Z,39.87
2023-01-19T06:02:49.560Z,39.99
2023-01-19T06:04:22.687Z,39.69
2023-01-19T06:05:58.426Z,39.57
2023-01-19T06:07:32.097Z,39.66
2023-01-19T06:09:05.152Z,39.93
2023-01-19T06:10:38.011Z,39.91
2023-01-19T06:12:11.114Z,39.96
2023-01-19T06:13:44.282Z,39.17
2023-01-19T06:15:17.339Z,39.45
2023-01-19T06:16:50.402Z,39.69
2023-01-19T06:18:23.918Z,39.40
2023-01-19T06:19:56.740Z,39.98
2023-01-19T06:21:29.809Z,39.99
2023-01-19T06:23:03.264Z,39.89
2023-01-19T06:24:36.390Z,40.05
2023-01-19T06:26:09.311Z,39.87
2023-01-19T06:27:45.660Z,40.07
2023-01-19T06:29:18.875Z,39.86
2023-01-19T06:30:54.255Z,39.52
2023-01-19T06:32:27.213Z,39.57
2023-01-19T06:34:00.131Z,39.79
2023-01-19T06:35:33.029Z,39.51
2023-01-19T06:37:05.846Z,39.08
2023-01-19T06:38:38.476Z,39.87
2023-01-19T06:40:13.750Z,39.79
2023-01-19T06:41:47.557Z,39.47
2023-01-19T06:43:20.737Z,39.01
2023-01-19T06:44:53.600Z,39.67
2023-01-19T06:46:26.562Z,39.75
2023-01-19T06:47:59.715Z,39.86
2023-01-19T06:49:32.658Z,40.49
2023-01-19T06:51:07.221Z,41.08
2023-01-19T06:52:42.819Z,41.46
2023-01-19T06:54:16.253Z,41.30
2023-01-19T06:55:49.303Z,41.66
2023-01-19T06:57:22.499Z,41.27
2023-01-19T06:58:55.597Z,40.85
2023-01-19T07:00:29.378Z,41.88
2023-01-19T07:02:26.638Z,42.19
2023-01-19T07:03:55.272Z,42.19
2023-01-19T07:05:28.300Z,42.55
2023-01-19T07:07:01.949Z,42.38
2023-01-19T07:08:36.404Z,42.58
2023-01-19T07:10:12.023Z,42.44
2023-01-19T07:11:45.529Z,42.62
2023-01-19T07:13:18.591Z,42.76
2023-01-19T07:14:51.988Z,43.79
2023-01-19T07:16:25.401Z,43.53
2023-01-19T07:17:59.331Z,43.87
2023-01-19T07:19:32.558Z,43.85
2023-01-19T07:21:06.177Z,43.58
2023-01-19T07:22:39.641Z,43.77
2023-01-19T07:24:12.542Z,43.49
2023-01-19T07:25:46.922Z,43.63
2023-01-19T07:27:19.773Z,43.56
2023-01-19T07:28:52.935Z,43.32
2023-01-19T07:30:27.201Z,43.82
2023-01-19T07:32:00.469Z,43.82
2023-01-19T07:33:33.480Z,44.05
2023-01-19T07:35:06.775Z,43.47
2023-01-19T07:36:39.888Z,43.68
2023-01-19T07:38:12.896Z,43.45
2023-01-19T07:39:45.830Z,43.78
2023-01-19T07:41:18.837Z,43.71
2023-01-19T07:42:52.416Z,44.01
2023-01-19T07:44:25.533Z,44.29
2023-01-19T07:46:00.001Z,43.88
2023-01-19T07:47:32.994Z,44.15
2023-01-19T07:49:06.117Z,44.09
2023-01-19T07:50:39.362Z,44.18
2023-01-19T07:52:12.296Z,44.35
2023-01-19T07:53:46.030Z,44.66
2023-01-19T07:55:19.360Z,44.71
2023-01-19T07:56:55.440Z,44.45
2023-01-19T07:58:28.407Z,44.86
2023-01-19T08:00:01.595Z,44.44
2023-01-19T08:01:35.328Z,44.27
2023-01-19T08:03:09.547Z,44.52
2023-01-19T08:04:43.816Z,44.44
2023-01-19T08:06:34.038Z,43.93
2023-01-19T08:08:07.119Z,44.59
2023-01-19T08:09:40.510Z,44.97
2023-01-19T08:11:13.531Z,45.00
2023-01-19T08:12:46.465Z,45.14
2023-01-19T08:14:19.397Z,44.62
2023-01-19T08:15:53.560Z,44.59
2023-01-19T08:17:26.512Z,44.42
2023-01-19T08:18:59.470Z,44.63
2023-01-19T08:20:32.647Z,43.99
2023-01-19T08:22:06.477Z,44.18
2023-01-19T08:23:39.475Z,44.68
2023-01-19T08:25:12.372Z,44.97
2023-01-19T08:26:45.263Z,44.74
2023-01-19T08:28:18.667Z,45.07
2023-01-19T08:29:51.941Z,44.88
2023-01-19T08:31:25.823Z,45.31
2023-01-19T08:33:04.512Z,44.96
2023-01-19T08:34:37.655Z,44.81
2023-01-19T08:36:10.515Z,45.18
2023-01-19T08:37:43.317Z,44.88
2023-01-19T08:39:18.242Z,44.92
2023-01-19T08:40:51.473Z,44.85
2023-01-19T08:42:24.346Z,44.67
2023-01-19T08:43:57.695Z,45.03
2023-01-19T08:45:31.431Z,45.18
2023-01-19T08:47:04.518Z,44.94
2023-01-19T08:48:39.751Z,44.88
2023-01-19T08:50:12.891Z,44.75
2023-01-19T08:51:49.227Z,44.96
2023-01-19T08:53:24.140Z,45.17
2023-01-19T08:54:57.083Z,44.98
2023-01-19T08:56:30.086Z,44.99
2023-01-19T08:58:04.730Z,44.87
2023-01-19T08:59:38.559Z,45.15
2023-01-19T09:01:17.290Z,44.88
2023-01-19T09:02:50.504Z,44.92
2023-01-19T09:04:24.881Z,44.94
2023-01-19T09:05:58.114Z,45.18
2023-01-19T09:07:33.853Z,45.44
2023-01-19T09:09:08.331Z,45.03
2023-01-19T09:10:48.818Z,45.41
2023-01-19T09:12:22.342Z,45.25
2023-01-19T09:13:55.321Z,45.51
2023-01-19T09:15:28.284Z,45.55
2023-01-19T09:17:01.268Z,45.97
2023-01-19T09:18:35.407Z,45.82
2023-01-19T09:20:09.254Z,45.92
2023-01-19T09:21:42.222Z,45.91
2023-01-19T09:23:18.132Z,45.72
2023-01-19T09:24:51.689Z,45.89
2023-01-19T09:26:25.198Z,45.43
2023-01-19T09:28:00.649Z,45.12
2023-01-19T09:29:33.773Z,45.28
2023-01-19T09:31:09.025Z,45.52
2023-01-19T09:32:43.137Z,45.14
2023-01-19T09:34:16.122Z,45.30
2023-01-19T09:35:51.108Z,45.09
2023-01-19T09:37:24.260Z,45.29
2023-01-19T09:38:57.157Z,45.36
2023-01-19T09:40:30.755Z,45.45
2023-01-19T09:42:27.581Z,45.21
2023-01-19T09:44:01.291Z,45.04
2023-01-19T09:45:46.372Z,45.26
2023-01-19T09:47:25.683Z,44.92
2023-01-19T09:49:05.257Z,45.10
2023-01-19T09:50:47.015Z,44.96
2023-01-19T09:52:20.976Z,44.74
2023-01-19T09:53:57.103Z,44.65
2023-01-19T09:55:31.362Z,44.80
2023-01-19T09:57:10.005Z,44.95
2023-01-19T09:58:43.442Z,44.88
2023-01-19T10:00:20.028Z,44.99
2023-01-19T10:01:56.553Z,44.83
2023-01-19T10:03:30.166Z,45.21
2023-01-19T10:05:08.905Z,44.96
2023-01-19T10:06:43.115Z,44.97
2023-01-19T10:08:43.658Z,44.72
2023-01-19T10:10:28.492Z,44.98
2023-01-19T10:12:19.047Z,44.87
2023-01-19T10:13:54.548Z,45.12
2023-01-19T10:15:42.522Z,45.23
2023-01-19T10:17:51.607Z,45.57
2023-01-19T10:19:31.424Z,45.12
2023-01-19T10:21:18.359Z,45.67
2023-01-19T10:22:51.561Z,46.02
2023-01-19T10:24:29.618Z,45.94
2023-01-19T10:26:19.232Z,45.71
2023-01-19T10:27:52.333Z,45.33
2023-01-19T10:29:37.890Z,45.44
2023-01-19T10:31:12.185Z,45.20
2023-01-19T10:32:46.015Z,45.22
2023-01-19T10:34:23.840Z,45.57
2023-01-19T10:35:56.893Z,45.40
2023-01-19T10:37:39.548Z,45.53
2023-01-19T10:39:16.618Z,45.07
2023-01-19T10:40:53.345Z,45.05
2023-01-19T10:42:30.098Z,45.44
2023-01-19T10:44:05.666Z,45.27
2023-01-19T10:45:38.786Z,45.64
2023-01-19T10:47:24.996Z,45.98
2023-01-19T10:48:58.114Z,46.30
2023-01-19T10:50:40.113Z,46.11
2023-01-19T10:52:34.496Z,46.06
2023-01-19T10:54:13.305Z,46.16
2023-01-19T10:55:46.782Z,46.51
2023-01-19T10:57:32.611Z,46.32
2023-01-19T10:59:07.027Z,46.77
2023-01-19T11:00:42.190Z,46.48
2023-01-19T11:02:29.789Z,46.56
2023-01-19T11:04:28.535Z,46.88
2023-01-19T11:06:16.319Z,46.74
2023-01-19T11:07:49.399Z,47.09
2023-01-19T11:09:22.377Z,47.03
2023-01-19T11:11:08.471Z,47.12
2023-01-19T11:12:46.489Z,47.08
2023-01-19T11:14:22.876Z,47.23
2023-01-19T11:16:16.433Z,47.10
2023-01-19T11:17:50.758Z,47.32
2023-01-19T11:19:30.233Z,47.17
2023-01-19T11:21:07.418Z,46.94
2023-01-19T11:22:40.346Z,47.39
2023-01-19T11:24:16.540Z,47.40
2023-01-19T11:25:51.633Z,47.58
2023-01-19T11:27:24.638Z,47.76
2023-01-19T11:28:59.890Z,48.23
2023-01-19T11:30:35.247Z,48.35
2023-01-19T11:32:19.705Z,48.75
2023-01-19T11:33:55.007Z,49.14
2023-01-19T11:35:30.832Z,49.23
2023-01-19T11:37:23.839Z,49.61
2023-01-19T11:39:02.818Z,49.80
2023-01-19T11:40:36.306Z,49.57
2023-01-19T11:42:13.107Z,49.48
2023-01-19T11:43:49.573Z,49.53
2023-01-19T11:45:23.472Z,49.39
2023-01-19T11:47:02.719Z,49.47
2023-01-19T11:49:18.809Z,49.74
2023-01-19T11:50:52.075Z,49.57
2023-01-19T11:52:31.912Z,50.17
2023-01-19T11:54:16.015Z,49.90
2023-01-19T11:56:05.172Z,49.80
2023-01-19T11:57:39.836Z,49.72
2023-01-19T11:59:13.504Z,49.67
2023-01-19T12:01:21.302Z,49.62
2023-01-19T12:02:59.294Z,49.61
2023-01-19T12:04:40.547Z,49.83
2023-01-19T12:06:19.450Z,49.96
2023-01-19T12:07:54.531Z,50.04
2023-01-19T12:09:31.405Z,50.33
2023-01-19T12:11:06.233Z,50.48
2023-01-19T12:12:40.759Z,51.47
2023-01-19T12:15:03.628Z,52.11
2023-01-19T12:16:39.298Z,52.67
2023-01-19T12:18:41.806Z,52.69
2023-01-19T12:20:25.739Z,52.69
2023-01-19T12:21:59.191Z,53.12
2023-01-19T12:23:54.615Z,53.95
2023-01-19T12:25:54.912Z,54.33
2023-01-19T12:27:45.749Z,53.98
2023-01-19T12:29:22.582Z,54.28
2023-01-19T12:30:56.598Z,54.42
2023-01-19T12:32:34.876Z,54.17
2023-01-19T12:34:27.470Z,54.85
2023-01-19T12:36:38.997Z,54.74
2023-01-19T12:38:57.403Z,55.32
2023-01-19T12:40:31.806Z,54.96
2023-01-19T12:42:15.605Z,55.38
2023-01-19T12:43:50.431Z,55.50
2023-01-19T12:45:26.252Z,56.09
2023-01-19T12:47:07.145Z,56.14
2023-01-19T12:48:41.305Z,57.78
2023-01-19T12:50:19.443Z,58.42
2023-01-19T12:51:56.395Z,59.81
2023-01-19T12:53:30.814Z,61.58
2023-01-19T12:55:13.605Z,62.42
2023-01-19T12:56:46.602Z,62.75
2023-01-19T12:58:19.329Z,61.12
2023-01-19T13:00:05.654Z,60.50
2023-01-19T13:01:39.073Z,63.61
2023-01-19T13:03:17.917Z,65.97
2023-01-19T13:05:22.424Z,63.15
2023-01-19T13:06:56.673Z,63.16
2023-01-19T13:09:01.366Z,63.29
2023-01-19T13:10:52.969Z,62.32
2023-01-19T13:12:26.466Z,62.98
2023-01-19T13:13:59.309Z,63.03
2023-01-19T13:15:36.218Z,63.73
2023-01-19T13:17:34.089Z,64.30
2023-01-19T13:19:06.943Z,65.68
2023-01-19T13:21:00.748Z,64.56
2023-01-19T13:22:52.704Z,67.00
2023-01-19T13:24:25.568Z,66.58
2023-01-19T13:26:15.249Z,67.38
2023-01-19T13:27:49.951Z,66.13
2023-01-19T13:29:43.661Z,65.37
2023-01-19T13:31:18.243Z,64.02
2023-01-19T13:32:51.711Z,63.57
2023-01-19T13:34:28.097Z,63.10
2023-01-19T13:36:01.275Z,65.20
2023-01-19T13:37:39.732Z,66.88
2023-01-19T13:39:37.245Z,68.18
2023-01-19T13:41:10.568Z,67.86
2023-01-19T13:42:44.108Z,66.49
2023-01-19T13:44:41.044Z,65.56
2023-01-19T13:46:17.701Z,63.96
2023-01-19T13:47:52.080Z,63.25
2023-01-19T13:49:35.972Z,62.24
2023-01-19T13:51:18.469Z,62.40
2023-01-19T13:52:54.203Z,62.31
2023-01-19T13:54:27.317Z,62.27
2023-01-19T13:56:22.235Z,61.63
2023-01-19T13:57:56.013Z,61.50
2023-01-19T13:59:28.942Z,61.41
2023-01-19T14:01:01.965Z,61.23
2023-01-19T14:02:35.838Z,60.82
2023-01-19T14:04:32.185Z,60.87
2023-01-19T14:06:05.338Z,60.79
2023-01-19T14:07:38.723Z,60.56
2023-01-19T14:09:17.113Z,60.50
2023-01-19T14:11:07.414Z,60.25
2023-01-19T14:12:54.505Z,58.88
2023-01-19T14:14:31.992Z,58.45
2023-01-19T14:16:08.462Z,59.26
2023-01-19T14:17:42.734Z,58.85
2023-01-19T14:19:15.844Z,58.71
2023-01-19T14:21:06.409Z,58.16
2023-01-19T14:22:43.728Z,57.68
2023-01-19T14:24:17.763Z,57.29
2023-01-19T14:25:50.666Z,57.81
2023-01-19T14:27:25.011Z,58.13
2023-01-19T14:28:57.983Z,58.34
2023-01-19T14:30:32.805Z,58.52
2023-01-19T14:32:13.307Z,58.45
2023-01-19T14:33:47.590Z,58.78
2023-01-19T14:35:25.513Z,58.65
2023-01-19T14:36:59.648Z,59.14
2023-01-19T14:38:32.558Z,59.81
2023-01-19T14:40:25.748Z,59.90
2023-01-19T14:42:00.460Z,60.47
2023-01-19T14:43:33.434Z,61.96
2023-01-19T14:45:27.052Z,61.85
2023-01-19T14:47:00.725Z,62.87
2023-01-19T14:48:33.985Z,61.79
2023-01-19T14:50:24.584Z,62.14
2023-01-19T14:51:57.902Z,62.38
2023-01-19T14:53:38.837Z,62.28
2023-01-19T14:55:27.212Z,63.43
2023-01-19T14:57:00.231Z,64.90
2023-01-19T14:58:36.069Z,65.69
2023-01-19T15:00:18.385Z,66.32
2023-01-19T15:01:51.341Z,66.17
2023-01-19T15:03:35.030Z,65.73
2023-01-19T15:05:16.830Z,65.66
2023-01-19T15:06:50.177Z,64.88
2023-01-19T15:08:33.672Z,64.94
2023-01-19T15:10:21.779Z,63.43
2023-01-19T15:11:55.024Z,63.61
2023-01-19T15:13:28.829Z,63.93
2023-01-19T15:15:02.964Z,65.08
2023-01-19T15:16:36.651Z,66.43
2023-01-19T15:18:16.060Z,68.21
2023-01-19T15:19:48.943Z,69.46
2023-01-19T15:21:29.193Z,68.98
2023-01-19T15:23:02.055Z,67.52
2023-01-19T15:24:35.748Z,67.75
2023-01-19T15:26:14.330Z,67.14
2023-01-19T15:27:49.419Z,66.89
2023-01-19T15:29:26.841Z,66.80
2023-01-19T15:31:00.617Z,66.37
2023-01-19T15:32:33.432Z,67.79
2023-01-19T15:34:06.292Z,67.88
2023-01-19T15:35:39.265Z,66.27
2023-01-19T15:37:12.560Z,66.20
2023-01-19T15:38:46.218Z,66.44
2023-01-19T15:40:20.372Z,67.89
2023-01-19T15:41:53.574Z,67.86
2023-01-19T15:43:26.701Z,69.23
2023-01-19T15:44:59.738Z,69.18
2023-01-19T15:46:33.480Z,69.21
2023-01-19T15:48:08.844Z,69.96
2023-01-19T15:49:41.883Z,71.00
2023-01-19T15:51:17.327Z,71.55
2023-01-19T15:52:50.295Z,71.29
2023-01-19T15:54:23.391Z,71.92
2023-01-19T15:55:57.301Z,72.35
2023-01-19T15:57:30.249Z,72.52
2023-01-19T15:59:03.223Z,72.24
2023-01-19T16:00:36.770Z,72.90
2023-01-19T16:02:10.372Z,72.96
2023-01-19T16:03:43.628Z,73.76
2023-01-19T16:05:16.696Z,74.08
2023-01-19T16:06:50.379Z,74.38
2023-01-19T16:08:23.418Z,74.43
2023-01-19T16:09:56.357Z,74.80
2023-01-19T16:11:34.706Z,74.81
2023-01-19T16:13:08.536Z,75.73
2023-01-19T16:14:41.611Z,75.96
2023-01-19T16:16:16.953Z,76.28
2023-01-19T16:17:50.200Z,76.38
2023-01-19T16:19:23.240Z,78.20
2023-01-19T16:20:56.262Z,78.58
2023-01-19T16:22:29.213Z,79.99
2023-01-19T16:24:02.015Z,81.28
2023-01-19T16:25:36.056Z,81.77
2023-01-19T16:27:09.616Z,82.11
2023-01-19T16:28:42.627Z,81.55
2023-01-19T16:30:17.092Z,80.85
2023-01-19T16:31:50.242Z,79.92
2023-01-19T16:33:23.624Z,79.16
2023-01-19T16:34:56.623Z,78.54
2023-01-19T16:36:35.129Z,79.01
2023-01-19T16:38:09.606Z,79.40
2023-01-19T16:39:45.394Z,79.11
2023-01-19T16:41:18.629Z,78.76
2023-01-19T16:42:51.854Z,78.17
2023-01-19T16:44:24.875Z,77.63
2023-01-19T16:46:01.414Z,76.89
2023-01-19T16:47:35.275Z,76.41
2023-01-19T16:49:17.994Z,76.41
2023-01-19T16:51:04.146Z,76.33
2023-01-19T16:52:37.082Z,76.04
2023-01-19T16:54:18.754Z,76.18
2023-01-19T16:55:53.298Z,81.38
2023-01-19T16:57:26.282Z,83.68
2023-01-19T16:58:59.887Z,86.05
2023-01-19T17:00:32.637Z,85.96
2023-01-19T17:02:05.954Z,84.88
2023-01-19T17:03:39.420Z,85.21
2023-01-19T17:05:12.531Z,85.52
2023-01-19T17:06:46.943Z,84.63
2023-01-19T17:08:20.789Z,83.27
2023-01-19T17:09:54.213Z,80.79
2023-01-19T17:11:29.725Z,80.47
2023-01-19T17:13:04.294Z,82.68
2023-01-19T17:14:38.522Z,81.23
2023-01-19T17:16:11.787Z,80.88
2023-01-19T17:17:44.935Z,80.66
2023-01-19T17:19:20.329Z,81.19
2023-01-19T17:20:53.281Z,81.81
2023-01-19T17:22:26.241Z,82.46
2023-01-19T17:24:00.335Z,82.42
2023-01-19T17:25:33.249Z,81.62
2023-01-19T17:27:06.150Z,81.52
2023-01-19T17:28:39.447Z,82.04
2023-01-19T17:30:13.161Z,84.68
2023-01-19T17:31:46.969Z,84.03
2023-01-19T17:33:23.121Z,83.69
2023-01-19T17:34:56.363Z,84.28
2023-01-19T17:36:30.573Z,84.15
2023-01-19T17:38:03.555Z,83.51
2023-01-19T17:39:36.526Z,82.98
2023-01-19T17:41:17.605Z,82.63
2023-01-19T17:42:50.565Z,81.95
2023-01-19T17:44:23.560Z,81.86
2023-01-19T17:45:56.501Z,81.64
2023-01-19T17:47:29.952Z,81.93
2023-01-19T17:49:04.993Z,81.29
2023-01-19T17:50:37.887Z,81.16
2023-01-19T17:52:10.928Z,81.05
2023-01-19T17:53:43.946Z,80.74
2023-01-19T17:55:18.555Z,80.28
2023-01-19T17:56:51.348Z,78.14
2023-01-19T17:58:24.354Z,77.20
2023-01-19T17:59:57.320Z,76.92
2023-01-19T18:01:32.307Z,74.59
2023-01-19T18:03:05.318Z,76.04
2023-01-19T18:04:39.300Z,77.45
2023-01-19T18:06:12.748Z,77.87
2023-01-19T18:07:46.323Z,77.52
2023-01-19T18:09:19.254Z,77.05
2023-01-19T18:10:56.506Z,75.27
2023-01-19T18:12:29.509Z,76.28
2023-01-19T18:14:02.706Z,76.31
2023-01-19T18:15:35.563Z,76.70
2023-01-19T18:17:08.491Z,75.13
2023-01-19T18:18:41.928Z,76.69
2023-01-19T18:20:15.316Z,77.33
2023-01-19T18:21:48.816Z,78.03
2023-01-19T18:23:21.851Z,78.56
2023-01-19T18:24:55.237Z,80.08
2023-01-19T18:26:29.250Z,80.65
2023-01-19T18:28:02.120Z,81.53
2023-01-19T18:29:35.054Z,82.50
2023-01-19T18:31:09.662Z,84.69
2023-01-19T18:32:42.617Z,85.69
2023-01-19T18:34:15.814Z,86.73
2023-01-19T18:35:49.077Z,87.17
2023-01-19T18:37:22.146Z,87.01
2023-01-19T18:38:55.606Z,87.93
2023-01-19T18:40:29.039Z,88.07
2023-01-19T18:42:02.697Z,87.71
2023-01-19T18:43:36.615Z,87.23
2023-01-19T18:45:10.291Z,87.71
2023-01-19T18:46:43.606Z,87.40
2023-01-19T18:48:18.083Z,87.43
2023-01-19T18:49:51.508Z,86.67
2023-01-19T18:51:24.675Z,86.99
2023-01-19T18:52:57.942Z,87.76
2023-01-19T18:54:31.468Z,88.21
2023-01-19T18:56:05.541Z,88.32
2023-01-19T18:57:38.561Z,88.10
2023-01-19T18:59:11.467Z,88.38
2023-01-19T19:00:44.484Z,88.66
2023-01-19T19:02:17.953Z,89.04
2023-01-19T19:03:52.005Z,89.82
2023-01-19T19:05:25.266Z,90.35
2023-01-19T19:06:58.361Z,92.32
2023-01-19T19:08:31.796Z,91.44
2023-01-19T19:10:06.121Z,91.03
2023-01-19T19:11:39.115Z,90.30
2023-01-19T19:13:17.567Z,90.50
2023-01-19T19:14:50.796Z,90.29
2023-01-19T19:16:23.968Z,88.75
2023-01-19T19:17:56.966Z,86.37
2023-01-19T19:19:30.032Z,86.47
2023-01-19T19:21:06.345Z,88.38
2023-01-19T19:22:39.373Z,89.89
2023-01-19T19:24:13.747Z,91.21
2023-01-19T19:25:46.756Z,89.36
2023-01-19T19:27:19.819Z,88.06
2023-01-19T19:28:52.933Z,87.71
2023-01-19T19:30:25.845Z,88.45
2023-01-19T19:31:59.128Z,87.85
2023-01-19T19:33:32.363Z,88.46
2023-01-19T19:35:05.677Z,88.24
2023-01-19T19:36:39.647Z,88.01
2023-01-19T19:38:12.493Z,87.94
2023-01-19T19:39:45.539Z,86.91
2023-01-19T19:41:23.491Z,86.61
2023-01-19T19:42:58.714Z,86.55
2023-01-19T19:44:31.883Z,86.26
2023-01-19T19:46:11.173Z,86.38
2023-01-19T19:47:44.157Z,86.39
2023-01-19T19:49:21.646Z,87.32
2023-01-19T19:50:55.597Z,87.58
2023-01-19T19:52:28.791Z,88.42
2023-01-19T19:54:02.011Z,88.13
2023-01-19T19:55:34.972Z,89.07
2023-01-19T19:57:07.878Z,89.57
2023-01-19T19:58:42.538Z,88.94
2023-01-19T20:00:16.183Z,88.02
2023-01-19T20:01:50.808Z,87.49
2023-01-19T20:03:27.448Z,88.01
2023-01-19T20:05:00.796Z,88.38
2023-01-19T20:06:39.037Z,88.02
2023-01-19T20:08:12.372Z,87.64
2023-01-19T20:09:45.777Z,87.88
2023-01-19T20:11:22.377Z,87.74
2023-01-19T20:12:55.262Z,87.46
2023-01-19T20:14:28.473Z,87.90
2023-01-19T20:16:06.168Z,87.97
2023-01-19T20:17:39.423Z,87.91
2023-01-19T20:19:12.612Z,87.59
2023-01-19T20:20:45.501Z,87.50
2023-01-19T20:22:18.446Z,86.92
2023-01-19T20:23:53.403Z,87.71
2023-01-19T20:25:26.969Z,86.41
2023-01-19T20:26:59.988Z,87.22
2023-01-19T20:28:32.952Z,87.61
2023-01-19T20:30:07.809Z,86.98
2023-01-19T20:31:45.043Z,86.24
2023-01-19T20:33:17.991Z,86.30
2023-01-19T20:34:50.920Z,86.47
2023-01-19T20:36:24.942Z,86.04